createdAt,value
2022-12-31T00:00:40.163Z,11.06
2022-12-31T00:04:04.769Z,11.21
2022-12-31T00:07:11.650Z,10.18
2022-12-31T00:10:18.521Z,9.71
2022-12-31T00:13:25.079Z,10.67
2022-12-31T00:16:33.823Z,11.18
2022-12-31T00:19:41.227Z,10.43
2022-12-31T00:22:47.939Z,9.76
2022-12-31T00:25:54.694Z,10.34
2022-12-31T00:29:02.619Z,10.98
2022-12-31T00:32:09.791Z,11.21
2022-12-31T00:35:16.595Z,10.39
2022-12-31T00:38:23.378Z,9.94
2022-12-31T00:41:31.483Z,10.75
2022-12-31T00:44:38.348Z,11.21
2022-12-31T00:47:45.127Z,11.32
2022-12-31T00:50:52.165Z,10.38
2022-12-31T00:53:59.712Z,10.36
2022-12-31T00:57:06.592Z,11.28
2022-12-31T01:00:15.927Z,11.50
2022-12-31T01:03:22.783Z,10.66
2022-12-31T01:06:29.902Z,10.32
2022-12-31T01:09:36.681Z,11.14
2022-12-31T01:12:43.478Z,11.99
2022-12-31T01:15:50.316Z,11.64
2022-12-31T01:18:59.057Z,10.61
2022-12-31T01:22:05.901Z,10.87
2022-12-31T01:25:12.801Z,11.71
2022-12-31T01:28:19.648Z,11.92
2022-12-31T01:31:27.387Z,11.05
2022-12-31T01:34:34.478Z,10.64
2022-12-31T01:37:41.578Z,11.43
2022-12-31T01:40:48.352Z,12.15
2022-12-31T01:43:58.814Z,12.31
2022-12-31T01:47:07.480Z,11.34
2022-12-31T01:50:19.476Z,10.61
2022-12-31T01:53:26.380Z,11.26
2022-12-31T01:56:33.872Z,12.00
2022-12-31T01:59:41.323Z,12.31
2022-12-31T02:02:48.646Z,11.41
2022-12-31T02:05:59.380Z,10.85
2022-12-31T02:09:06.164Z,11.58
2022-12-31T02:12:13.371Z,12.17
2022-12-31T02:15:23.091Z,12.37
2022-12-31T02:18:36.820Z,11.41
2022-12-31T02:21:57.824Z,10.94
2022-12-31T02:25:23.205Z,11.79
2022-12-31T02:28:50.552Z,12.36
2022-12-31T02:32:02.550Z,12.01
2022-12-31T02:35:14.606Z,11.00
2022-12-31T02:38:25.781Z,11.42
2022-12-31T02:41:46.500Z,12.04
2022-12-31T02:44:53.273Z,12.63
2022-12-31T02:48:12.755Z,12.53
2022-12-31T02:51:27.447Z,11.34
2022-12-31T02:54:42.277Z,10.86
2022-12-31T02:57:56.933Z,11.79
2022-12-31T03:01:21.251Z,12.47
2022-12-31T03:04:36.299Z,13.05
2022-12-31T03:07:44.930Z,12.40
2022-12-31T03:10:51.684Z,11.26
2022-12-31T03:13:58.475Z,11.25
2022-12-31T03:17:05.289Z,12.15
2022-12-31T03:20:29.810Z,12.75
2022-12-31T03:23:38.461Z,12.80
2022-12-31T03:26:45.285Z,11.71
2022-12-31T03:29:52.207Z,11.41
2022-12-31T03:32:59.696Z,12.19
2022-12-31T03:36:09.276Z,12.88
2022-12-31T03:39:14.430Z,13.15
2022-12-31T03:42:21.100Z,12.25
2022-12-31T03:45:28.133Z,11.47
2022-12-31T03:48:34.868Z,12.10
2022-12-31T03:51:45.269Z,12.81
2022-12-31T03:54:52.019Z,13.39
2022-12-31T03:57:59.006Z,13.47
2022-12-31T04:01:06.155Z,12.31
2022-12-31T04:04:12.961Z,11.56
2022-12-31T04:07:19.853Z,12.18
2022-12-31T04:10:26.701Z,12.89
2022-12-31T04:13:33.590Z,13.28
2022-12-31T04:16:40.449Z,13.76
2022-12-31T04:19:47.409Z,13.69
2022-12-31T04:22:54.360Z,12.48
2022-12-31T04:26:01.170Z,11.78
2022-12-31T04:29:08.069Z,12.50
2022-12-31T04:32:14.845Z,13.06
2022-12-31T04:35:22.511Z,13.47
2022-12-31T04:38:29.770Z,13.35
2022-12-31T04:41:36.983Z,12.13
2022-12-31T04:44:43.797Z,11.44
2022-12-31T04:47:50.752Z,12.05
2022-12-31T04:50:57.473Z,12.68
2022-12-31T04:54:04.577Z,12.94
2022-12-31T04:57:11.323Z,13.26
2022-12-31T05:00:20.305Z,13.34
2022-12-31T05:03:27.828Z,12.30
2022-12-31T05:06:34.588Z,11.62
2022-12-31T05:09:41.358Z,12.21
2022-12-31T05:12:47.891Z,12.92
2022-12-31T05:15:54.534Z,13.40
2022-12-31T05:19:02.200Z,13.58
2022-12-31T05:22:26.889Z,12.79
2022-12-31T05:25:34.174Z,11.72
2022-12-31T05:28:41.133Z,12.18
2022-12-31T05:31:47.862Z,12.93
2022-12-31T05:34:54.764Z,13.39
2022-12-31T05:38:02.242Z,13.50
2022-12-31T05:41:10.376Z,12.58
2022-12-31T05:44:17.197Z,12.00
2022-12-31T05:47:24.529Z,12.75
2022-12-31T05:50:31.214Z,13.22
2022-12-31T05:53:43.903Z,13.49
2022-12-31T05:56:50.707Z,13.60
2022-12-31T05:59:57.425Z,13.16
2022-12-31T06:03:04.509Z,12.15
2022-12-31T06:06:11.554Z,12.54
2022-12-31T06:09:19.252Z,13.20
2022-12-31T06:12:26.096Z,13.53
2022-12-31T06:15:33.046Z,13.72
2022-12-31T06:18:39.702Z,13.61
2022-12-31T06:21:46.518Z,12.50
2022-12-31T06:24:53.353Z,12.09
2022-12-31T06:28:00.117Z,12.73
2022-12-31T06:31:09.163Z,13.10
2022-12-31T06:34:16.140Z,13.33
2022-12-31T06:37:22.892Z,13.45
2022-12-31T06:40:29.790Z,13.67
2022-12-31T06:43:37.657Z,13.76
2022-12-31T06:46:45.387Z,13.80
2022-12-31T06:49:52.169Z,13.87
2022-12-31T06:52:58.857Z,13.96
2022-12-31T06:56:11.334Z,13.97
2022-12-31T06:59:26.659Z,13.97
2022-12-31T07:03:00.761Z,12.82
2022-12-31T07:06:14.793Z,12.55
2022-12-31T07:09:29.208Z,13.13
2022-12-31T07:12:47.310Z,13.51
2022-12-31T07:16:06.119Z,13.77
2022-12-31T07:19:25.320Z,13.75
2022-12-31T07:22:33.125Z,13.73
2022-12-31T07:25:48.556Z,13.93
2022-12-31T07:29:11.739Z,13.95
2022-12-31T07:32:30.379Z,14.11
2022-12-31T07:35:47.276Z,14.29
2022-12-31T07:39:03.021Z,14.28
2022-12-31T07:42:16.515Z,14.34
2022-12-31T07:45:29.674Z,14.34
2022-12-31T07:48:37.557Z,14.47
2022-12-31T07:51:46.357Z,14.55
2022-12-31T07:54:53.351Z,14.54
2022-12-31T07:58:06.765Z,14.65
2022-12-31T08:01:15.961Z,14.63
2022-12-31T08:04:32.753Z,14.64
2022-12-31T08:07:49.020Z,14.51
2022-12-31T08:11:07.780Z,14.70
2022-12-31T08:14:16.132Z,14.71
2022-12-31T08:17:23.905Z,14.65
2022-12-31T08:20:33.901Z,14.58
2022-12-31T08:23:51.311Z,14.59
2022-12-31T08:27:06.352Z,14.63
2022-12-31T08:30:16.241Z,14.73
2022-12-31T08:33:28.854Z,14.83
2022-12-31T08:36:46.659Z,14.81
2022-12-31T08:40:08.196Z,14.97
2022-12-31T08:43:31.322Z,15.11
2022-12-31T08:46:46.060Z,15.09
2022-12-31T08:49:53.671Z,15.23
2022-12-31T08:53:02.247Z,15.32
2022-12-31T08:56:17.304Z,15.40
2022-12-31T08:59:38.288Z,15.52
2022-12-31T09:03:04.365Z,15.57
2022-12-31T09:06:20.302Z,15.62
2022-12-31T09:09:34.135Z,15.63
2022-12-31T09:12:51.280Z,15.76
2022-12-31T09:16:07.549Z,15.80
2022-12-31T09:19:14.350Z,15.87
2022-12-31T09:22:21.688Z,15.87
2022-12-31T09:25:29.956Z,16.06
2022-12-31T09:28:46.615Z,16.26
2022-12-31T09:31:59.269Z,16.37
2022-12-31T09:35:13.698Z,16.42
2022-12-31T09:38:25.787Z,16.44
2022-12-31T09:42:04.102Z,16.36
2022-12-31T09:45:48.180Z,16.29
2022-12-31T09:49:28.743Z,16.29
2022-12-31T09:52:48.642Z,16.36
2022-12-31T09:56:02.107Z,16.46
2022-12-31T09:59:14.880Z,16.51
2022-12-31T10:02:36.719Z,16.70
2022-12-31T10:06:02.449Z,16.94
2022-12-31T10:09:38.266Z,16.97
2022-12-31T10:13:04.561Z,15.97
2022-12-31T10:16:36.761Z,15.83
2022-12-31T10:20:12.676Z,16.49
2022-12-31T10:24:01.069Z,16.96
2022-12-31T10:27:34.685Z,17.15
2022-12-31T10:30:49.664Z,17.12
2022-12-31T10:34:13.346Z,16.05
2022-12-31T10:37:24.633Z,16.42
2022-12-31T10:40:54.314Z,17.18
2022-12-31T10:44:30.904Z,17.44
2022-12-31T10:48:01.068Z,16.49
2022-12-31T10:51:35.337Z,16.27
2022-12-31T10:55:04.861Z,17.02
2022-12-31T10:58:38.504Z,17.36
2022-12-31T11:01:58.221Z,16.67
2022-12-31T11:05:32.908Z,16.36
2022-12-31T11:09:09.889Z,17.14
2022-12-31T11:12:36.881Z,17.71
2022-12-31T11:16:08.773Z,16.99
2022-12-31T11:19:26.152Z,16.51
2022-12-31T11:22:48.469Z,17.36
2022-12-31T11:26:11.214Z,17.95
2022-12-31T11:29:38.273Z,17.60
2022-12-31T11:33:00.490Z,17.06
2022-12-31T11:36:20.852Z,17.79
2022-12-31T11:39:42.555Z,18.13
2022-12-31T11:42:57.837Z,17.42
2022-12-31T11:46:45.528Z,17.30
2022-12-31T11:50:17.077Z,18.22
2022-12-31T11:53:44.671Z,18.38
2022-12-31T11:57:00.752Z,17.46
2022-12-31T12:00:19.037Z,17.24
2022-12-31T12:03:26.782Z,18.11
2022-12-31T12:06:34.563Z,18.68
2022-12-31T12:09:42.697Z,18.05
2022-12-31T12:12:49.511Z,17.41
2022-12-31T12:16:00.186Z,17.79
2022-12-31T12:19:17.936Z,18.64
2022-12-31T12:22:29.003Z,18.58
2022-12-31T12:25:42.581Z,17.91
2022-12-31T12:28:49.196Z,17.77
2022-12-31T12:32:01.981Z,18.64
2022-12-31T12:35:29.809Z,18.78
2022-12-31T12:38:37.955Z,17.93
2022-12-31T12:41:44.908Z,17.52
2022-12-31T12:45:06.265Z,18.20
2022-12-31T12:48:21.066Z,18.91
2022-12-31T12:51:46.423Z,18.33
2022-12-31T12:55:06.238Z,17.65
2022-12-31T12:58:24.247Z,17.78
2022-12-31T13:01:40.685Z,18.63
2022-12-31T13:05:13.106Z,18.40
2022-12-31T13:08:37.095Z,17.64
2022-12-31T13:11:57.590Z,17.80
2022-12-31T13:15:14.657Z,18.66
2022-12-31T13:18:35.999Z,18.15
2022-12-31T13:21:54.755Z,17.49
2022-12-31T13:25:07.082Z,18.05
2022-12-31T13:28:16.749Z,18.84
2022-12-31T13:31:30.411Z,18.17
2022-12-31T13:34:41.439Z,17.54
2022-12-31T13:37:49.847Z,17.70
2022-12-31T13:41:05.252Z,18.64
2022-12-31T13:44:19.262Z,18.31
2022-12-31T13:47:34.691Z,17.44
2022-12-31T13:50:51.287Z,17.61
2022-12-31T13:54:04.923Z,18.44
2022-12-31T13:57:24.725Z,18.59
2022-12-31T14:00:38.205Z,17.77
2022-12-31T14:03:51.775Z,17.28
2022-12-31T14:07:03.817Z,17.93
2022-12-31T14:10:15.637Z,18.68
2022-12-31T14:13:40.433Z,18.33
2022-12-31T14:16:54.405Z,17.43
2022-12-31T14:20:12.528Z,17.68
2022-12-31T14:23:28.725Z,18.46
2022-12-31T14:26:37.735Z,18.70
2022-12-31T14:29:50.023Z,18.01
2022-12-31T14:33:07.448Z,17.46
2022-12-31T14:36:27.186Z,18.17
2022-12-31T14:39:45.285Z,18.82
2022-12-31T14:43:12.611Z,18.31
2022-12-31T14:46:30.614Z,17.55
2022-12-31T14:49:49.022Z,18.07
2022-12-31T14:53:07.433Z,18.73
2022-12-31T14:59:58.426Z,17.92
2022-12-31T15:03:08.956Z,17.68
2022-12-31T15:06:44.406Z,18.35
2022-12-31T15:10:14.716Z,18.81
2022-12-31T15:13:38.701Z,18.21
2022-12-31T15:16:54.500Z,17.47
2022-12-31T15:20:34.438Z,17.77
2022-12-31T15:23:43.977Z,18.64
2022-12-31T15:26:57.691Z,18.44
2022-12-31T15:30:06.457Z,17.58
2022-12-31T15:33:26.872Z,17.44
2022-12-31T15:36:36.381Z,18.14
2022-12-31T15:39:44.739Z,18.57
2022-12-31T15:42:56.459Z,18.01
2022-12-31T15:46:05.323Z,17.32
2022-12-31T15:49:18.334Z,17.85
2022-12-31T15:52:32.375Z,18.52
2022-12-31T15:55:45.411Z,18.40
2022-12-31T15:58:57.924Z,17.43
2022-12-31T16:02:04.866Z,17.24
2022-12-31T16:05:23.843Z,18.00
2022-12-31T16:08:33.490Z,18.45
2022-12-31T16:11:44.617Z,18.43
2022-12-31T16:14:55.682Z,17.42
2022-12-31T16:18:05.717Z,17.24
2022-12-31T16:21:32.810Z,17.99
2022-12-31T16:25:02.754Z,18.50
2022-12-31T16:28:06.635Z,17.84
2022-12-31T16:31:18.945Z,16.98
2022-12-31T16:34:28.541Z,17.39
2022-12-31T16:37:35.554Z,18.07
2022-12-31T16:40:43.614Z,18.29
2022-12-31T16:43:52.102Z,17.64
2022-12-31T16:47:04.003Z,16.98
2022-12-31T16:50:18.371Z,17.46
2022-12-31T16:53:27.951Z,17.97
2022-12-31T16:56:38.230Z,18.38
2022-12-31T16:59:48.243Z,18.10
2022-12-31T17:03:04.410Z,17.04
2022-12-31T17:06:17.408Z,17.25
2022-12-31T17:09:38.118Z,17.74
2022-12-31T17:16:19.940Z,18.33
2022-12-31T17:19:45.241Z,17.47
2022-12-31T17:22:54.569Z,16.85
2022-12-31T17:26:08.591Z,17.48
2022-12-31T17:29:26.195Z,18.04
2022-12-31T17:32:38.894Z,18.30
2022-12-31T17:35:47.587Z,17.39
2022-12-31T17:38:54.451Z,16.74
2022-12-31T17:42:01.230Z,17.32
2022-12-31T17:45:10.467Z,17.90
2022-12-31T17:48:17.004Z,18.18
2022-12-31T17:51:24.380Z,18.43
2022-12-31T17:54:31.757Z,18.32
2022-12-31T17:57:38.821Z,17.24
2022-12-31T18:00:45.736Z,16.57
2022-12-31T18:03:52.732Z,17.11
2022-12-31T18:06:59.410Z,17.72
2022-12-31T18:10:06.811Z,18.12
2022-12-31T18:13:18.535Z,18.12
2022-12-31T18:16:25.329Z,17.05
2022-12-31T18:20:03.514Z,16.85
2022-12-31T18:22:59.082Z,17.73
2022-12-31T18:26:06.060Z,18.43
2022-12-31T18:29:19.926Z,17.98
2022-12-31T18:32:29.818Z,16.77
2022-12-31T18:39:04.748Z,17.81
2022-12-31T18:42:14.378Z,18.31
2022-12-31T18:45:23.074Z,17.61
2022-12-31T18:48:29.942Z,16.68
2022-12-31T18:51:37.059Z,17.41
2022-12-31T18:54:44.052Z,18.10
2022-12-31T18:57:51.131Z,18.16
2022-12-31T19:00:58.058Z,17.18
2022-12-31T19:04:12.177Z,17.12
2022-12-31T19:07:20.430Z,18.10
2022-12-31T19:10:29.041Z,18.43
2022-12-31T19:13:35.702Z,17.55
2022-12-31T19:16:42.532Z,16.97
2022-12-31T19:19:49.512Z,17.99
2022-12-31T19:22:56.623Z,18.53
2022-12-31T19:26:03.316Z,17.59
2022-12-31T19:29:16.874Z,17.00
2022-12-31T19:32:23.659Z,17.98
2022-12-31T19:35:30.571Z,18.64
2022-12-31T19:38:37.308Z,17.85
2022-12-31T19:41:46.104Z,16.85
2022-12-31T19:44:53.003Z,17.21
2022-12-31T19:47:59.791Z,17.87
2022-12-31T19:51:11.485Z,18.17
2022-12-31T19:54:18.218Z,18.20
2022-12-31T19:57:24.957Z,17.20
2022-12-31T20:00:31.781Z,17.24
2022-12-31T20:03:38.471Z,17.84
2022-12-31T20:06:45.305Z,18.09
2022-12-31T20:09:52.522Z,18.08
2022-12-31T20:12:59.414Z,18.24
2022-12-31T20:16:09.875Z,18.13
2022-12-31T20:19:17.314Z,17.05
2022-12-31T20:22:24.089Z,17.13
2022-12-31T20:25:30.825Z,17.87
2022-12-31T20:28:38.281Z,18.41
2022-12-31T20:31:45.203Z,17.88
2022-12-31T20:34:51.964Z,16.78
2022-12-31T20:37:59.228Z,16.87
2022-12-31T20:41:10.025Z,17.52
2022-12-31T20:44:17.037Z,17.83
2022-12-31T20:47:27.387Z,18.02
2022-12-31T20:50:33.968Z,18.10
2022-12-31T20:53:40.681Z,18.13
2022-12-31T20:56:47.479Z,18.17
2022-12-31T20:59:54.217Z,17.13
2022-12-31T21:03:14.325Z,16.85
2022-12-31T21:06:27.803Z,17.64
2022-12-31T21:09:34.653Z,18.14
2022-12-31T21:12:44.474Z,18.33
2022-12-31T21:15:51.727Z,17.32
2022-12-31T21:18:58.953Z,16.87
2022-12-31T21:22:05.849Z,17.62
2022-12-31T21:25:13.400Z,18.22
2022-12-31T21:28:20.167Z,18.03
2022-12-31T21:31:27.084Z,17.04
2022-12-31T21:34:33.993Z,17.35
2022-12-31T21:37:58.032Z,18.15
2022-12-31T21:41:08.397Z,18.04
2022-12-31T21:44:15.561Z,17.16
2022-12-31T21:47:47.413Z,17.36
2022-12-31T21:50:56.543Z,18.16
2022-12-31T21:54:03.379Z,18.09
2022-12-31T21:57:10.443Z,17.11
2022-12-31T22:00:43.831Z,17.00
2022-12-31T22:03:51.369Z,18.05
2022-12-31T22:06:58.114Z,18.25
2022-12-31T22:10:04.848Z,17.29
2022-12-31T22:13:11.694Z,16.88
2022-12-31T22:16:20.279Z,17.53
2022-12-31T22:19:27.256Z,18.25
2022-12-31T22:22:34.236Z,17.74
2022-12-31T22:25:41.161Z,16.83
2022-12-31T22:28:49.166Z,17.21
2022-12-31T22:32:01.019Z,17.95
2022-12-31T22:35:09.463Z,18.07
2022-12-31T22:38:16.108Z,17.21
2022-12-31T22:41:24.601Z,16.80
2022-12-31T22:44:31.472Z,17.35
2022-12-31T22:47:38.403Z,18.12
2022-12-31T22:50:45.163Z,18.21
2022-12-31T22:53:51.895Z,17.12
2022-12-31T22:56:58.569Z,16.71
2022-12-31T23:00:10.061Z,17.46
2022-12-31T23:03:17.033Z,18.13
2022-12-31T23:06:26.042Z,18.00
2022-12-31T23:09:50.585Z,17.00
2022-12-31T23:12:57.434Z,17.07
2022-12-31T23:16:22.023Z,17.92
2022-12-31T23:19:46.317Z,17.92
2022-12-31T23:23:09.850Z,17.02
2022-12-31T23:26:16.699Z,17.08
2022-12-31T23:29:24.018Z,17.93
2022-12-31T23:32:30.905Z,17.88
2022-12-31T23:35:37.757Z,17.07
2022-12-31T23:38:44.568Z,16.65
2022-12-31T23:41:51.218Z,17.44
2022-12-31T23:44:57.933Z,17.92
2022-12-31T23:48:05.196Z,17.25
2022-12-31T23:51:11.907Z,16.61
2022-12-31T23:54:18.785Z,17.02
2022-12-31T23:57:25.545Z,17.96
